sensor_id;sensor_type;location;lat;lon;timestamp;temperature;humidity
7472;DHT22;3777;48.722;8.110;2022-12-29T00:01:32;13.10;99.90
7472;DHT22;3777;48.722;8.110;2022-12-29T00:03:59;13.10;99.90
7472;DHT22;3777;48.722;8.110;2022-12-29T00:06:28;13.20;99.90
7472;DHT22;3777;48.722;8.110;2022-12-29T00:08:55;13.20;99.90
7472;DHT22;3777;48.722;8.110;2022-12-29T00:11:23;13.10;99.90
7472;DHT22;3777;48.722;8.110;2022-12-29T00:13:50;13.20;99.90
7472;DHT22;3777;48.722;8.110;2022-12-29T00:16:36;13.20;99.90
7472;DHT22;3777;48.722;8.110;2022-12-29T00:19:03;13.20;99.90
7472;DHT22;3777;48.722;8.110;2022-12-29T00:21:32;13.20;99.90
7472;DHT22;3777;48.722;8.110;2022-12-29T00:24:18;13.20;99.90
7472;DHT22;3777;48.722;8.110;2022-12-29T00:27:11;13.20;99.90
7472;DHT22;3777;48.722;8.110;2022-12-29T00:29:56;13.20;99.90
7472;DHT22;3777;48.722;8.110;2022-12-29T00:32:40;13.20;99.90
7472;DHT22;3777;48.722;8.110;2022-12-29T00:35:27;13.20;99.90
7472;DHT22;3777;48.722;8.110;2022-12-29T00:37:58;13.10;99.90
7472;DHT22;3777;48.722;8.110;2022-12-29T00:40:48;13.10;99.90
7472;DHT22;3777;48.722;8.110;2022-12-29T00:43:33;13.10;99.90
7472;DHT22;3777;48.722;8.110;2022-12-29T00:46:17;13.10;99.90
7472;DHT22;3777;48.722;8.110;2022-12-29T00:48:44;13.10;99.90
7472;DHT22;3777;48.722;8.110;2022-12-29T00:51:28;13.10;99.90
7472;DHT22;3777;48.722;8.110;2022-12-29T00:53:56;13.10;99.90
7472;DHT22;3777;48.722;8.110;2022-12-29T00:56:23;13.10;99.90
7472;DHT22;3777;48.722;8.110;2022-12-29T00:58:50;13.00;99.90
7472;DHT22;3777;48.722;8.110;2022-12-29T01:01:17;13.10;99.90
7472;DHT22;3777;48.722;8.110;2022-12-29T01:03:44;13.10;99.90
7472;DHT22;3777;48.722;8.110;2022-12-29T01:06:12;13.10;99.90
7472;DHT22;3777;48.722;8.110;2022-12-29T01:08:39;13.10;99.90
7472;DHT22;3777;48.722;8.110;2022-12-29T01:11:08;13.10;99.90
7472;DHT22;3777;48.722;8.110;2022-12-29T01:13:35;13.00;99.90
7472;DHT22;3777;48.722;8.110;2022-12-29T01:16:03;13.00;99.90
7472;DHT22;3777;48.722;8.110;2022-12-29T01:18:30;13.00;99.90
7472;DHT22;3777;48.722;8.110;2022-12-29T01:21:00;13.00;99.90
7472;DHT22;3777;48.722;8.110;2022-12-29T01:23:28;13.00;99.90
7472;DHT22;3777;48.722;8.110;2022-12-29T01:25:55;12.90;99.90
7472;DHT22;3777;48.722;8.110;2022-12-29T01:28:24;12.90;99.90
7472;DHT22;3777;48.722;8.110;2022-12-29T01:30:51;12.90;99.90
7472;DHT22;3777;48.722;8.110;2022-12-29T01:33:17;12.80;99.90
7472;DHT22;3777;48.722;8.110;2022-12-29T01:35:44;12.80;99.90
7472;DHT22;3777;48.722;8.110;2022-12-29T01:38:11;12.80;99.90
7472;DHT22;3777;48.722;8.110;2022-12-29T01:40:45;12.70;99.90
7472;DHT22;3777;48.722;8.110;2022-12-29T01:43:13;12.70;99.90
7472;DHT22;3777;48.722;8.110;2022-12-29T01:45:46;12.70;99.90
7472;DHT22;3777;48.722;8.110;2022-12-29T01:48:15;12.70;99.90
7472;DHT22;3777;48.722;8.110;2022-12-29T01:50:45;12.80;99.90
7472;DHT22;3777;48.722;8.110;2022-12-29T01:53:18;12.80;99.90
7472;DHT22;3777;48.722;8.110;2022-12-29T01:55:49;12.80;99.90
7472;DHT22;3777;48.722;8.110;2022-12-29T01:58:19;12.80;99.90
7472;DHT22;3777;48.722;8.110;2022-12-29T02:00:48;12.80;99.90
7472;DHT22;3777;48.722;8.110;2022-12-29T02:03:16;12.80;99.90
7472;DHT22;3777;48.722;8.110;2022-12-29T02:05:49;12.80;99.90
7472;DHT22;3777;48.722;8.110;2022-12-29T02:08:18;12.80;99.90
7472;DHT22;3777;48.722;8.110;2022-12-29T02:10:46;12.80;99.90
7472;DHT22;3777;48.722;8.110;2022-12-29T02:13:15;12.70;99.90
7472;DHT22;3777;48.722;8.110;2022-12-29T02:15:51;12.70;99.90
7472;DHT22;3777;48.722;8.110;2022-12-29T02:18:27;12.60;99.90
7472;DHT22;3777;48.722;8.110;2022-12-29T02:21:23;12.60;99.90
7472;DHT22;3777;48.722;8.110;2022-12-29T02:24:16;12.50;99.90
7472;DHT22;3777;48.722;8.110;2022-12-29T02:27:01;12.50;99.90
7472;DHT22;3777;48.722;8.110;2022-12-29T02:29:53;12.60;99.90
7472;DHT22;3777;48.722;8.110;2022-12-29T02:32:30;12.60;99.90
7472;DHT22;3777;48.722;8.110;2022-12-29T02:35:06;12.70;99.90
7472;DHT22;3777;48.722;8.110;2022-12-29T02:37:40;12.70;99.90
7472;DHT22;3777;48.722;8.110;2022-12-29T02:40:16;12.80;99.90
7472;DHT22;3777;48.722;8.110;2022-12-29T02:42:48;12.80;99.90
7472;DHT22;3777;48.722;8.110;2022-12-29T02:45:21;12.90;99.90
7472;DHT22;3777;48.722;8.110;2022-12-29T02:47:56;12.90;99.90
7472;DHT22;3777;48.722;8.110;2022-12-29T02:50:27;12.80;99.90
7472;DHT22;3777;48.722;8.110;2022-12-29T02:52:59;12.70;99.90
7472;DHT22;3777;48.722;8.110;2022-12-29T02:55:26;12.70;99.90
7472;DHT22;3777;48.722;8.110;2022-12-29T02:58:13;12.70;99.90
7472;DHT22;3777;48.722;8.110;2022-12-29T03:00:51;12.70;99.90
7472;DHT22;3777;48.722;8.110;2022-12-29T03:03:33;12.70;99.90
7472;DHT22;3777;48.722;8.110;2022-12-29T03:06:21;12.70;99.90
7472;DHT22;3777;48.722;8.110;2022-12-29T03:08:55;12.70;99.90
7472;DHT22;3777;48.722;8.110;2022-12-29T03:11:29;12.80;99.90
7472;DHT22;3777;48.722;8.110;2022-12-29T03:14:23;12.80;99.90
7472;DHT22;3777;48.722;8.110;2022-12-29T03:17:20;12.70;99.90
7472;DHT22;3777;48.722;8.110;2022-12-29T03:19:57;12.70;99.90
7472;DHT22;3777;48.722;8.110;2022-12-29T03:22:28;12.70;99.90
7472;DHT22;3777;48.722;8.110;2022-12-29T03:24:59;12.70;99.90
7472;DHT22;3777;48.722;8.110;2022-12-29T03:27:29;12.60;99.90
7472;DHT22;3777;48.722;8.110;2022-12-29T03:30:00;12.50;99.90
7472;DHT22;3777;48.722;8.110;2022-12-29T03:32:32;12.50;99.90
7472;DHT22;3777;48.722;8.110;2022-12-29T03:35:02;12.50;99.90
7472;DHT22;3777;48.722;8.110;2022-12-29T03:37:32;12.40;99.90
7472;DHT22;3777;48.722;8.110;2022-12-29T03:40:03;12.40;99.90
7472;DHT22;3777;48.722;8.110;2022-12-29T03:42:33;12.50;99.90
7472;DHT22;3777;48.722;8.110;2022-12-29T03:45:01;12.50;99.90
7472;DHT22;3777;48.722;8.110;2022-12-29T03:47:28;12.60;99.90
7472;DHT22;3777;48.722;8.110;2022-12-29T03:49:55;12.60;99.90
7472;DHT22;3777;48.722;8.110;2022-12-29T03:52:23;12.70;99.90
7472;DHT22;3777;48.722;8.110;2022-12-29T03:54:50;12.70;99.90
7472;DHT22;3777;48.722;8.110;2022-12-29T03:57:17;12.60;99.90
7472;DHT22;3777;48.722;8.110;2022-12-29T03:59:44;12.60;99.90
7472;DHT22;3777;48.722;8.110;2022-12-29T04:02:11;12.50;99.90
7472;DHT22;3777;48.722;8.110;2022-12-29T04:04:37;12.30;99.90
7472;DHT22;3777;48.722;8.110;2022-12-29T04:07:04;12.20;99.90
7472;DHT22;3777;48.722;8.110;2022-12-29T04:09:33;12.20;99.90
7472;DHT22;3777;48.722;8.110;2022-12-29T04:12:00;12.10;99.90
7472;DHT22;3777;48.722;8.110;2022-12-29T04:14:27;12.10;99.90
7472;DHT22;3777;48.722;8.110;2022-12-29T04:16:53;12.00;99.90
7472;DHT22;3777;48.722;8.110;2022-12-29T04:19:20;12.00;99.90
7472;DHT22;3777;48.722;8.110;2022-12-29T04:21:47;12.00;99.90
7472;DHT22;3777;48.722;8.110;2022-12-29T04:24:13;12.00;99.90
7472;DHT22;3777;48.722;8.110;2022-12-29T04:26:42;11.90;99.90
7472;DHT22;3777;48.722;8.110;2022-12-29T04:29:09;11.90;99.90
7472;DHT22;3777;48.722;8.110;2022-12-29T04:31:35;11.90;99.90
7472;DHT22;3777;48.722;8.110;2022-12-29T04:34:02;11.90;99.90
7472;DHT22;3777;48.722;8.110;2022-12-29T04:36:29;11.90;99.90
7472;DHT22;3777;48.722;8.110;2022-12-29T04:38:56;11.90;99.90
7472;DHT22;3777;48.722;8.110;2022-12-29T04:41:23;11.90;99.90
7472;DHT22;3777;48.722;8.110;2022-12-29T04:43:52;11.90;99.90
7472;DHT22;3777;48.722;8.110;2022-12-29T04:46:19;11.90;99.90
7472;DHT22;3777;48.722;8.110;2022-12-29T04:48:46;11.90;99.90
7472;DHT22;3777;48.722;8.110;2022-12-29T04:51:13;11.90;99.90
7472;DHT22;3777;48.722;8.110;2022-12-29T04:53:40;11.90;99.90
7472;DHT22;3777;48.722;8.110;2022-12-29T04:56:07;12.00;99.90
7472;DHT22;3777;48.722;8.110;2022-12-29T04:58:34;12.10;99.90
7472;DHT22;3777;48.722;8.110;2022-12-29T05:01:03;12.10;99.90
7472;DHT22;3777;48.722;8.110;2022-12-29T05:03:30;12.20;99.90
7472;DHT22;3777;48.722;8.110;2022-12-29T05:05:57;12.20;99.90
7472;DHT22;3777;48.722;8.110;2022-12-29T05:08:24;12.30;99.90
7472;DHT22;3777;48.722;8.110;2022-12-29T05:10:51;12.30;99.90
7472;DHT22;3777;48.722;8.110;2022-12-29T05:13:18;12.40;99.90
7472;DHT22;3777;48.722;8.110;2022-12-29T05:15:50;12.30;99.90
7472;DHT22;3777;48.722;8.110;2022-12-29T05:18:19;12.40;99.90
7472;DHT22;3777;48.722;8.110;2022-12-29T05:20:47;12.40;99.90
7472;DHT22;3777;48.722;8.110;2022-12-29T05:23:14;12.40;99.90
7472;DHT22;3777;48.722;8.110;2022-12-29T05:25:43;12.40;99.90
7472;DHT22;3777;48.722;8.110;2022-12-29T05:28:12;12.40;99.90
7472;DHT22;3777;48.722;8.110;2022-12-29T05:30:39;12.30;99.90
7472;DHT22;3777;48.722;8.110;2022-12-29T05:33:06;12.30;99.90
7472;DHT22;3777;48.722;8.110;2022-12-29T05:35:34;12.30;99.90
7472;DHT22;3777;48.722;8.110;2022-12-29T05:38:01;12.30;99.90
7472;DHT22;3777;48.722;8.110;2022-12-29T05:40:28;12.30;99.90
7472;DHT22;3777;48.722;8.110;2022-12-29T05:42:55;12.30;99.90
7472;DHT22;3777;48.722;8.110;2022-12-29T05:45:22;12.20;99.90
7472;DHT22;3777;48.722;8.110;2022-12-29T05:47:49;12.20;99.90
7472;DHT22;3777;48.722;8.110;2022-12-29T05:50:16;12.20;99.90
7472;DHT22;3777;48.722;8.110;2022-12-29T05:52:44;12.20;99.90
7472;DHT22;3777;48.722;8.110;2022-12-29T05:55:11;12.20;99.90
7472;DHT22;3777;48.722;8.110;2022-12-29T05:57:38;12.30;99.90
7472;DHT22;3777;48.722;8.110;2022-12-29T06:00:07;12.30;99.90
7472;DHT22;3777;48.722;8.110;2022-12-29T06:02:34;12.30;99.90
7472;DHT22;3777;48.722;8.110;2022-12-29T06:05:01;12.40;99.90
7472;DHT22;3777;48.722;8.110;2022-12-29T06:07:27;12.50;99.90
7472;DHT22;3777;48.722;8.110;2022-12-29T06:09:56;12.50;99.90
7472;DHT22;3777;48.722;8.110;2022-12-29T06:12:23;12.50;99.90
7472;DHT22;3777;48.722;8.110;2022-12-29T06:14:50;12.60;99.90
7472;DHT22;3777;48.722;8.110;2022-12-29T06:17:17;12.70;99.90
7472;DHT22;3777;48.722;8.110;2022-12-29T06:19:43;12.70;99.90
7472;DHT22;3777;48.722;8.110;2022-12-29T06:22:10;12.70;99.90
7472;DHT22;3777;48.722;8.110;2022-12-29T06:24:39;12.70;99.90
7472;DHT22;3777;48.722;8.110;2022-12-29T06:27:07;12.70;99.90
7472;DHT22;3777;48.722;8.110;2022-12-29T06:29:34;12.70;99.90
7472;DHT22;3777;48.722;8.110;2022-12-29T06:32:02;12.70;99.90
7472;DHT22;3777;48.722;8.110;2022-12-29T06:34:29;12.70;99.90
7472;DHT22;3777;48.722;8.110;2022-12-29T06:36:56;12.80;99.90
7472;DHT22;3777;48.722;8.110;2022-12-29T06:39:23;12.90;99.90
7472;DHT22;3777;48.722;8.110;2022-12-29T06:41:52;12.90;99.90
7472;DHT22;3777;48.722;8.110;2022-12-29T06:44:20;12.90;99.90
7472;DHT22;3777;48.722;8.110;2022-12-29T06:46:48;12.90;99.90
7472;DHT22;3777;48.722;8.110;2022-12-29T06:49:15;12.90;99.90
7472;DHT22;3777;48.722;8.110;2022-12-29T06:51:42;12.80;99.90
7472;DHT22;3777;48.722;8.110;2022-12-29T06:54:09;12.70;99.90
7472;DHT22;3777;48.722;8.110;2022-12-29T06:56:36;12.70;99.90
7472;DHT22;3777;48.722;8.110;2022-12-29T06:59:03;12.70;99.90
7472;DHT22;3777;48.722;8.110;2022-12-29T07:01:32;12.70;99.90
7472;DHT22;3777;48.722;8.110;2022-12-29T07:03:59;12.70;99.90
7472;DHT22;3777;48.722;8.110;2022-12-29T07:06:26;12.70;99.90
7472;DHT22;3777;48.722;8.110;2022-12-29T07:08:53;12.80;99.90
7472;DHT22;3777;48.722;8.110;2022-12-29T07:11:22;12.80;99.90
7472;DHT22;3777;48.722;8.110;2022-12-29T07:13:49;12.80;99.90
7472;DHT22;3777;48.722;8.110;2022-12-29T07:16:16;12.80;99.90
7472;DHT22;3777;48.722;8.110;2022-12-29T07:18:45;12.80;99.90
7472;DHT22;3777;48.722;8.110;2022-12-29T07:21:12;12.90;99.90
7472;DHT22;3777;48.722;8.110;2022-12-29T07:23:39;12.90;99.90
7472;DHT22;3777;48.722;8.110;2022-12-29T07:26:08;12.90;99.90
7472;DHT22;3777;48.722;8.110;2022-12-29T07:28:36;12.90;99.90
7472;DHT22;3777;48.722;8.110;2022-12-29T07:31:04;13.00;99.90
7472;DHT22;3777;48.722;8.110;2022-12-29T07:33:32;13.00;99.90
7472;DHT22;3777;48.722;8.110;2022-12-29T07:36:00;13.00;99.90
7472;DHT22;3777;48.722;8.110;2022-12-29T07:38:28;13.00;99.90
7472;DHT22;3777;48.722;8.110;2022-12-29T07:40:57;13.00;99.90
7472;DHT22;3777;48.722;8.110;2022-12-29T07:43:24;13.00;99.90
7472;DHT22;3777;48.722;8.110;2022-12-29T07:45:51;13.10;99.90
7472;DHT22;3777;48.722;8.110;2022-12-29T07:48:18;13.10;99.90
7472;DHT22;3777;48.722;8.110;2022-12-29T07:50:45;13.20;99.90
7472;DHT22;3777;48.722;8.110;2022-12-29T07:53:14;13.20;99.90
7472;DHT22;3777;48.722;8.110;2022-12-29T07:55:40;13.20;99.90
7472;DHT22;3777;48.722;8.110;2022-12-29T07:58:07;13.20;99.90
7472;DHT22;3777;48.722;8.110;2022-12-29T08:00:34;13.20;99.90
7472;DHT22;3777;48.722;8.110;2022-12-29T08:03:01;13.20;99.90
7472;DHT22;3777;48.722;8.110;2022-12-29T08:05:30;13.20;99.90
7472;DHT22;3777;48.722;8.110;2022-12-29T08:07:57;13.30;99.90
7472;DHT22;3777;48.722;8.110;2022-12-29T08:10:25;13.40;99.90
7472;DHT22;3777;48.722;8.110;2022-12-29T08:12:52;13.40;99.90
7472;DHT22;3777;48.722;8.110;2022-12-29T08:15:19;13.50;99.90
7472;DHT22;3777;48.722;8.110;2022-12-29T08:17:46;13.50;99.90
7472;DHT22;3777;48.722;8.110;2022-12-29T08:20:13;13.60;99.90
7472;DHT22;3777;48.722;8.110;2022-12-29T08:22:40;13.60;99.90
7472;DHT22;3777;48.722;8.110;2022-12-29T08:25:08;13.60;99.90
7472;DHT22;3777;48.722;8.110;2022-12-29T08:27:36;13.60;99.90
7472;DHT22;3777;48.722;8.110;2022-12-29T08:30:04;13.70;99.90
7472;DHT22;3777;48.722;8.110;2022-12-29T08:32:31;13.70;99.90
7472;DHT22;3777;48.722;8.110;2022-12-29T08:34:58;13.70;99.90
7472;DHT22;3777;48.722;8.110;2022-12-29T08:37:26;13.70;99.90
7472;DHT22;3777;48.722;8.110;2022-12-29T08:39:53;13.70;99.90
7472;DHT22;3777;48.722;8.110;2022-12-29T08:42:20;13.80;99.90
7472;DHT22;3777;48.722;8.110;2022-12-29T08:44:48;13.80;99.90
7472;DHT22;3777;48.722;8.110;2022-12-29T08:47:15;13.80;99.90
7472;DHT22;3777;48.722;8.110;2022-12-29T08:49:42;13.80;99.90
7472;DHT22;3777;48.722;8.110;2022-12-29T08:52:09;13.90;99.90
7472;DHT22;3777;48.722;8.110;2022-12-29T08:54:36;13.90;99.90
7472;DHT22;3777;48.722;8.110;2022-12-29T08:57:03;13.90;99.90
7472;DHT22;3777;48.722;8.110;2022-12-29T08:59:30;13.90;99.90
7472;DHT22;3777;48.722;8.110;2022-12-29T09:01:58;13.80;99.90
7472;DHT22;3777;48.722;8.110;2022-12-29T09:04:25;13.80;99.90
7472;DHT22;3777;48.722;8.110;2022-12-29T09:06:52;13.70;99.90
7472;DHT22;3777;48.722;8.110;2022-12-29T09:09:20;13.60;99.90
7472;DHT22;3777;48.722;8.110;2022-12-29T09:11:47;13.60;99.90
7472;DHT22;3777;48.722;8.110;2022-12-29T09:14:14;13.60;99.90
7472;DHT22;3777;48.722;8.110;2022-12-29T09:16:41;13.60;99.90
7472;DHT22;3777;48.722;8.110;2022-12-29T09:19:27;13.60;99.90
7472;DHT22;3777;48.722;8.110;2022-12-29T09:21:54;13.60;99.90
7472;DHT22;3777;48.722;8.110;2022-12-29T09:24:21;13.70;99.90
7472;DHT22;3777;48.722;8.110;2022-12-29T09:26:48;13.60;99.90
7472;DHT22;3777;48.722;8.110;2022-12-29T09:29:15;13.70;99.90
7472;DHT22;3777;48.722;8.110;2022-12-29T09:31:42;13.80;99.90
7472;DHT22;3777;48.722;8.110;2022-12-29T09:34:09;13.90;99.90
7472;DHT22;3777;48.722;8.110;2022-12-29T09:36:37;13.90;99.90
7472;DHT22;3777;48.722;8.110;2022-12-29T09:39:04;14.00;99.90
7472;DHT22;3777;48.722;8.110;2022-12-29T09:41:37;14.00;99.90
7472;DHT22;3777;48.722;8.110;2022-12-29T09:44:12;14.20;99.90
7472;DHT22;3777;48.722;8.110;2022-12-29T09:46:41;14.30;99.90
7472;DHT22;3777;48.722;8.110;2022-12-29T09:49:19;14.40;99.90
7472;DHT22;3777;48.722;8.110;2022-12-29T09:51:52;14.50;99.90
7472;DHT22;3777;48.722;8.110;2022-12-29T09:54:42;14.60;99.90
7472;DHT22;3777;48.722;8.110;2022-12-29T09:57:19;14.60;99.90
7472;DHT22;3777;48.722;8.110;2022-12-29T09:59:49;14.50;99.90
7472;DHT22;3777;48.722;8.110;2022-12-29T10:02:27;14.50;99.90
7472;DHT22;3777;48.722;8.110;2022-12-29T10:04:55;14.50;99.90
7472;DHT22;3777;48.722;8.110;2022-12-29T10:07:31;14.60;99.90
7472;DHT22;3777;48.722;8.110;2022-12-29T10:10:09;14.90;99.90
7472;DHT22;3777;48.722;8.110;2022-12-29T10:12:53;15.20;99.90
7472;DHT22;3777;48.722;8.110;2022-12-29T10:15:33;15.20;99.90
7472;DHT22;3777;48.722;8.110;2022-12-29T10:18:24;15.30;99.90
7472;DHT22;3777;48.722;8.110;2022-12-29T10:20:59;15.40;99.90
7472;DHT22;3777;48.722;8.110;2022-12-29T10:23:31;15.60;99.90
7472;DHT22;3777;48.722;8.110;2022-12-29T10:26:01;15.80;99.90
7472;DHT22;3777;48.722;8.110;2022-12-29T10:28:34;16.00;99.90
7472;DHT22;3777;48.722;8.110;2022-12-29T10:31:04;16.00;99.90
7472;DHT22;3777;48.722;8.110;2022-12-29T10:33:36;15.90;99.90
7472;DHT22;3777;48.722;8.110;2022-12-29T10:36:12;16.00;99.90
7472;DHT22;3777;48.722;8.110;2022-12-29T10:38:47;16.00;99.90
7472;DHT22;3777;48.722;8.110;2022-12-29T10:41:18;16.10;99.90
7472;DHT22;3777;48.722;8.110;2022-12-29T10:43:49;16.00;99.90
7472;DHT22;3777;48.722;8.110;2022-12-29T10:46:19;15.90;99.90
7472;DHT22;3777;48.722;8.110;2022-12-29T10:48:47;15.80;99.90
7472;DHT22;3777;48.722;8.110;2022-12-29T10:51:20;15.80;99.90
7472;DHT22;3777;48.722;8.110;2022-12-29T10:53:51;15.70;99.90
7472;DHT22;3777;48.722;8.110;2022-12-29T10:56:29;15.50;99.90
7472;DHT22;3777;48.722;8.110;2022-12-29T10:59:03;15.40;99.90
7472;DHT22;3777;48.722;8.110;2022-12-29T11:01:39;15.10;99.90
7472;DHT22;3777;48.722;8.110;2022-12-29T11:04:21;15.10;99.90
7472;DHT22;3777;48.722;8.110;2022-12-29T11:06:49;15.10;99.90
7472;DHT22;3777;48.722;8.110;2022-12-29T11:09:24;15.00;99.90
7472;DHT22;3777;48.722;8.110;2022-12-29T11:11:53;14.90;99.90
7472;DHT22;3777;48.722;8.110;2022-12-29T11:14:25;14.90;99.90
7472;DHT22;3777;48.722;8.110;2022-12-29T11:16:57;14.90;99.90
7472;DHT22;3777;48.722;8.110;2022-12-29T11:19:25;14.80;99.90
7472;DHT22;3777;48.722;8.110;2022-12-29T11:21:53;14.70;99.90
7472;DHT22;3777;48.722;8.110;2022-12-29T11:24:23;14.60;99.90
7472;DHT22;3777;48.722;8.110;2022-12-29T11:26:51;14.70;99.90
7472;DHT22;3777;48.722;8.110;2022-12-29T11:29:27;14.80;99.90
7472;DHT22;3777;48.722;8.110;2022-12-29T11:31:55;14.90;99.90
7472;DHT22;3777;48.722;8.110;2022-12-29T11:34:25;14.90;99.90
7472;DHT22;3777;48.722;8.110;2022-12-29T11:37:00;14.90;99.90
7472;DHT22;3777;48.722;8.110;2022-12-29T11:39:34;14.90;99.90
7472;DHT22;3777;48.722;8.110;2022-12-29T11:42:03;14.80;99.90
7472;DHT22;3777;48.722;8.110;2022-12-29T11:44:36;14.80;99.90
7472;DHT22;3777;48.722;8.110;2022-12-29T11:47:04;14.80;99.90
7472;DHT22;3777;48.722;8.110;2022-12-29T11:49:32;14.80;99.90
7472;DHT22;3777;48.722;8.110;2022-12-29T11:52:00;14.70;99.90
7472;DHT22;3777;48.722;8.110;2022-12-29T11:54:31;14.80;99.90
7472;DHT22;3777;48.722;8.110;2022-12-29T11:57:10;14.90;99.90
7472;DHT22;3777;48.722;8.110;2022-12-29T11:59:41;14.90;99.90
7472;DHT22;3777;48.722;8.110;2022-12-29T12:02:35;14.90;99.90
7472;DHT22;3777;48.722;8.110;2022-12-29T12:05:12;15.10;99.90
7472;DHT22;3777;48.722;8.110;2022-12-29T12:07:41;15.10;99.90
7472;DHT22;3777;48.722;8.110;2022-12-29T12:10:27;15.20;99.90
7472;DHT22;3777;48.722;8.110;2022-12-29T12:13:08;15.40;99.90
7472;DHT22;3777;48.722;8.110;2022-12-29T12:15:42;15.40;99.90
7472;DHT22;3777;48.722;8.110;2022-12-29T12:18:15;15.50;99.90
7472;DHT22;3777;48.722;8.110;2022-12-29T12:20:46;15.50;99.90
7472;DHT22;3777;48.722;8.110;2022-12-29T12:23:27;15.60;99.90
7472;DHT22;3777;48.722;8.110;2022-12-29T12:26:02;15.50;99.90
7472;DHT22;3777;48.722;8.110;2022-12-29T12:28:37;15.50;99.90
7472;DHT22;3777;48.722;8.110;2022-12-29T12:31:16;15.50;99.90
7472;DHT22;3777;48.722;8.110;2022-12-29T12:33:48;15.50;99.90
7472;DHT22;3777;48.722;8.110;2022-12-29T12:39:12;15.50;99.90
7472;DHT22;3777;48.722;8.110;2022-12-29T12:41:52;15.50;99.90
7472;DHT22;3777;48.722;8.110;2022-12-29T12:44:28;15.40;99.90
7472;DHT22;3777;48.722;8.110;2022-12-29T12:47:16;15.30;99.90
7472;DHT22;3777;48.722;8.110;2022-12-29T12:50:05;15.20;99.90
7472;DHT22;3777;48.722;8.110;2022-12-29T12:52:49;15.10;99.90
7472;DHT22;3777;48.722;8.110;2022-12-29T12:55:34;15.00;99.90
7472;DHT22;3777;48.722;8.110;2022-12-29T12:58:11;15.00;99.90
7472;DHT22;3777;48.722;8.110;2022-12-29T13:00:54;15.10;99.90
7472;DHT22;3777;48.722;8.110;2022-12-29T13:03:30;15.00;99.90
7472;DHT22;3777;48.722;8.110;2022-12-29T13:06:10;14.90;99.90
7472;DHT22;3777;48.722;8.110;2022-12-29T13:11:52;14.80;99.90
7472;DHT22;3777;48.722;8.110;2022-12-29T13:14:32;14.80;99.90
7472;DHT22;3777;48.722;8.110;2022-12-29T13:17:10;14.80;99.90
7472;DHT22;3777;48.722;8.110;2022-12-29T13:19:41;14.70;99.90
7472;DHT22;3777;48.722;8.110;2022-12-29T13:22:11;14.70;99.90
7472;DHT22;3777;48.722;8.110;2022-12-29T13:24:55;14.70;99.90
7472;DHT22;3777;48.722;8.110;2022-12-29T13:27:29;14.60;99.90
7472;DHT22;3777;48.722;8.110;2022-12-29T13:30:03;14.60;99.90
7472;DHT22;3777;48.722;8.110;2022-12-29T13:32:49;14.50;99.90
7472;DHT22;3777;48.722;8.110;2022-12-29T13:35:27;14.50;99.90
7472;DHT22;3777;48.722;8.110;2022-12-29T13:38:00;14.50;99.90
7472;DHT22;3777;48.722;8.110;2022-12-29T13:40:32;14.50;99.90
7472;DHT22;3777;48.722;8.110;2022-12-29T13:43:04;14.50;99.90
7472;DHT22;3777;48.722;8.110;2022-12-29T13:45:33;14.50;99.90
7472;DHT22;3777;48.722;8.110;2022-12-29T13:48:06;14.50;99.90
7472;DHT22;3777;48.722;8.110;2022-12-29T13:50:38;14.50;99.90
7472;DHT22;3777;48.722;8.110;2022-12-29T13:53:14;14.40;99.90
7472;DHT22;3777;48.722;8.110;2022-12-29T13:55:49;14.50;99.90
7472;DHT22;3777;48.722;8.110;2022-12-29T13:58:22;14.40;99.90
7472;DHT22;3777;48.722;8.110;2022-12-29T14:00:58;14.50;99.90
7472;DHT22;3777;48.722;8.110;2022-12-29T14:03:43;14.50;99.90
7472;DHT22;3777;48.722;8.110;2022-12-29T14:06:22;14.40;99.90
7472;DHT22;3777;48.722;8.110;2022-12-29T14:08:52;14.40;99.90
7472;DHT22;3777;48.722;8.110;2022-12-29T14:11:23;14.40;99.90
7472;DHT22;3777;48.722;8.110;2022-12-29T14:13:52;14.30;99.90
7472;DHT22;3777;48.722;8.110;2022-12-29T14:16:34;14.30;99.90
7472;DHT22;3777;48.722;8.110;2022-12-29T14:19:13;14.30;99.90
7472;DHT22;3777;48.722;8.110;2022-12-29T14:21:51;14.20;99.90
7472;DHT22;3777;48.722;8.110;2022-12-29T14:24:41;14.20;99.90
7472;DHT22;3777;48.722;8.110;2022-12-29T14:30:46;14.10;99.90
7472;DHT22;3777;48.722;8.110;2022-12-29T14:33:14;13.90;99.90
7472;DHT22;3777;48.722;8.110;2022-12-29T14:35:44;13.70;99.90
7472;DHT22;3777;48.722;8.110;2022-12-29T14:38:24;13.30;99.90
7472;DHT22;3777;48.722;8.110;2022-12-29T14:40:52;13.10;99.90
7472;DHT22;3777;48.722;8.110;2022-12-29T14:43:25;12.90;99.90
7472;DHT22;3777;48.722;8.110;2022-12-29T14:45:55;12.70;99.90
7472;DHT22;3777;48.722;8.110;2022-12-29T14:48:36;12.50;99.90
7472;DHT22;3777;48.722;8.110;2022-12-29T14:51:25;12.30;99.90
7472;DHT22;3777;48.722;8.110;2022-12-29T14:53:54;12.30;99.90
7472;DHT22;3777;48.722;8.110;2022-12-29T14:56:25;12.10;99.90
7472;DHT22;3777;48.722;8.110;2022-12-29T14:58:54;12.10;99.90
7472;DHT22;3777;48.722;8.110;2022-12-29T15:01:32;12.00;99.90
7472;DHT22;3777;48.722;8.110;2022-12-29T15:04:12;12.00;99.90
7472;DHT22;3777;48.722;8.110;2022-12-29T15:06:41;12.00;99.90
7472;DHT22;3777;48.722;8.110;2022-12-29T15:09:17;11.90;99.90
7472;DHT22;3777;48.722;8.110;2022-12-29T15:11:51;11.80;99.90
7472;DHT22;3777;48.722;8.110;2022-12-29T15:14:30;11.70;99.90
7472;DHT22;3777;48.722;8.110;2022-12-29T15:16:58;11.60;99.90
7472;DHT22;3777;48.722;8.110;2022-12-29T15:19:26;11.60;99.90
7472;DHT22;3777;48.722;8.110;2022-12-29T15:21:55;11.50;99.90
7472;DHT22;3777;48.722;8.110;2022-12-29T15:24:24;11.50;99.90
7472;DHT22;3777;48.722;8.110;2022-12-29T15:26:53;11.50;99.90
7472;DHT22;3777;48.722;8.110;2022-12-29T15:29:36;11.40;99.90
7472;DHT22;3777;48.722;8.110;2022-12-29T15:32:17;11.40;99.90
7472;DHT22;3777;48.722;8.110;2022-12-29T15:34:46;11.30;99.90
7472;DHT22;3777;48.722;8.110;2022-12-29T15:37:20;11.20;99.90
7472;DHT22;3777;48.722;8.110;2022-12-29T15:39:48;11.00;99.90
7472;DHT22;3777;48.722;8.110;2022-12-29T15:42:45;10.90;99.90
7472;DHT22;3777;48.722;8.110;2022-12-29T15:45:15;10.90;99.90
7472;DHT22;3777;48.722;8.110;2022-12-29T15:47:44;10.90;99.90
7472;DHT22;3777;48.722;8.110;2022-12-29T15:50:21;10.90;99.90
7472;DHT22;3777;48.722;8.110;2022-12-29T15:52:50;11.10;99.90
7472;DHT22;3777;48.722;8.110;2022-12-29T15:55:30;11.10;99.90
7472;DHT22;3777;48.722;8.110;2022-12-29T15:57:59;11.10;99.90
7472;DHT22;3777;48.722;8.110;2022-12-29T16:00:28;11.10;99.90
7472;DHT22;3777;48.722;8.110;2022-12-29T16:02:58;11.10;99.90
7472;DHT22;3777;48.722;8.110;2022-12-29T16:05:31;11.10;99.90
7472;DHT22;3777;48.722;8.110;2022-12-29T16:08:00;11.00;99.90
7472;DHT22;3777;48.722;8.110;2022-12-29T16:10:32;10.90;99.90
7472;DHT22;3777;48.722;8.110;2022-12-29T16:13:05;10.80;99.90
7472;DHT22;3777;48.722;8.110;2022-12-29T16:15:37;10.70;99.90
7472;DHT22;3777;48.722;8.110;2022-12-29T16:18:04;10.60;99.90
7472;DHT22;3777;48.722;8.110;2022-12-29T16:20:37;10.50;99.90
7472;DHT22;3777;48.722;8.110;2022-12-29T16:23:18;10.50;99.90
7472;DHT22;3777;48.722;8.110;2022-12-29T16:25:46;10.40;99.90
7472;DHT22;3777;48.722;8.110;2022-12-29T16:28:19;10.50;99.90
7472;DHT22;3777;48.722;8.110;2022-12-29T16:30:46;10.50;99.90
7472;DHT22;3777;48.722;8.110;2022-12-29T16:33:40;10.50;99.90
7472;DHT22;3777;48.722;8.110;2022-12-29T16:36:28;10.50;99.90
7472;DHT22;3777;48.722;8.110;2022-12-29T16:39:26;10.60;99.90
7472;DHT22;3777;48.722;8.110;2022-12-29T16:41:53;10.50;99.90